createdAt,value
2019-01-20T00:02:05.596Z,24.07
2019-01-20T00:04:36.523Z,26.50
2019-01-20T00:07:06.217Z,25.57
2019-01-20T00:09:37.178Z,23.23
2019-01-20T00:12:07.658Z,23.10
2019-01-20T00:14:38.770Z,23.10
2019-01-20T00:17:12.020Z,22.17
2019-01-20T00:19:43.874Z,25.43
2019-01-20T00:22:14.670Z,23.15
2019-01-20T00:24:44.874Z,25.03
2019-01-20T00:27:17.777Z,24.73
2019-01-20T00:29:48.076Z,22.07
2019-01-20T00:32:20.706Z,23.03
2019-01-20T00:34:50.581Z,25.30
2019-01-20T00:37:21.076Z,24.57
2019-01-20T00:39:51.316Z,22.90
2019-01-20T00:42:25.136Z,26.70
2019-01-20T00:45:02.872Z,22.37
2019-01-20T00:47:35.456Z,21.07
2019-01-20T00:50:08.479Z,27.27
2019-01-20T00:52:38.540Z,29.80
2019-01-20T00:55:11.724Z,24.33
2019-01-20T00:57:43.730Z,30.77
2019-01-20T01:00:17.274Z,29.60
2019-01-20T01:02:47.154Z,26.50
2019-01-20T01:05:17.334Z,26.03
2019-01-20T01:07:47.135Z,23.33
2019-01-20T01:10:20.687Z,25.20
2019-01-20T01:12:51.502Z,26.23
2019-01-20T01:15:23.557Z,25.23
2019-01-20T01:17:57.910Z,26.87
2019-01-20T01:20:27.906Z,23.18
2019-01-20T01:22:59.092Z,24.77
2019-01-20T01:25:29.721Z,24.70
2019-01-20T01:28:00.496Z,30.93
2019-01-20T01:30:31.043Z,22.90
2019-01-20T01:33:00.985Z,28.60
2019-01-20T01:35:32.511Z,23.50
2019-01-20T01:38:03.176Z,28.57
2019-01-20T01:40:33.144Z,30.40
2019-01-20T01:43:03.255Z,32.83
2019-01-20T01:45:52.390Z,32.37
2019-01-20T01:48:22.194Z,32.90
2019-01-20T01:50:52.320Z,25.80
2019-01-20T01:53:25.134Z,29.47
2019-01-20T01:55:57.754Z,26.53
2019-01-20T01:58:29.131Z,26.27
2019-01-20T02:01:00.224Z,25.43
2019-01-20T02:03:32.596Z,25.63
2019-01-20T02:06:04.003Z,25.47
2019-01-20T02:08:35.446Z,27.73
2019-01-20T02:11:07.210Z,23.27
2019-01-20T02:13:37.576Z,25.13
2019-01-20T02:16:07.258Z,21.67
2019-01-20T02:18:39.158Z,23.30
2019-01-20T02:21:12.103Z,27.45
2019-01-20T02:23:42.431Z,24.57
2019-01-20T02:26:13.633Z,25.13
2019-01-20T02:28:45.432Z,28.27
2019-01-20T02:31:17.302Z,26.97
2019-01-20T02:33:48.332Z,26.50
2019-01-20T02:36:18.630Z,27.23
2019-01-20T02:38:49.147Z,25.00
2019-01-20T02:41:19.809Z,24.40
2019-01-20T02:43:52.320Z,29.50
2019-01-20T02:46:22.192Z,28.00
2019-01-20T02:48:52.982Z,26.03
2019-01-20T02:51:24.866Z,29.90
2019-01-20T02:53:56.477Z,28.70
2019-01-20T02:56:27.124Z,27.00
2019-01-20T02:59:00.506Z,29.03
2019-01-20T03:01:32.703Z,28.17
2019-01-20T03:04:03.551Z,25.50
2019-01-20T03:06:33.432Z,23.20
2019-01-20T03:09:08.098Z,28.07
2019-01-20T03:11:39.288Z,25.27
2019-01-20T03:14:10.098Z,27.57
2019-01-20T03:16:41.402Z,25.10
2019-01-20T03:19:11.559Z,28.43
2019-01-20T03:21:41.339Z,27.27
2019-01-20T03:24:12.836Z,30.43
2019-01-20T03:26:42.771Z,28.03
2019-01-20T03:29:14.769Z,25.03
2019-01-20T03:31:45.230Z,24.57
2019-01-20T03:34:17.936Z,26.97
2019-01-20T03:36:48.998Z,26.20
2019-01-20T03:39:19.844Z,32.40
2019-01-20T03:41:52.463Z,27.93
2019-01-20T03:44:23.635Z,26.03
2019-01-20T03:46:53.344Z,29.53
2019-01-20T03:49:23.334Z,25.33
2019-01-20T03:51:53.075Z,28.63
2019-01-20T03:54:23.327Z,26.57
2019-01-20T03:56:53.222Z,25.53
2019-01-20T03:59:23.470Z,24.53
2019-01-20T04:01:53.947Z,29.27
2019-01-20T04:04:25.616Z,24.43
2019-01-20T04:06:57.434Z,22.83
2019-01-20T04:09:28.572Z,24.00
2019-01-20T04:11:59.289Z,22.93
2019-01-20T04:14:31.169Z,27.33
2019-01-20T04:17:01.163Z,25.07
2019-01-20T04:19:33.366Z,24.30
2019-01-20T04:22:03.983Z,28.03
2019-01-20T04:24:34.091Z,24.37
2019-01-20T04:27:04.132Z,25.47
2019-01-20T04:29:35.107Z,28.13
2019-01-20T04:32:05.407Z,23.70
2019-01-20T04:34:37.239Z,23.60
2019-01-20T04:37:08.662Z,24.40
2019-01-20T04:39:39.586Z,25.37
2019-01-20T04:42:12.291Z,27.90
2019-01-20T04:44:44.648Z,22.13
2019-01-20T04:47:14.758Z,28.93
2019-01-20T04:49:44.633Z,25.87
2019-01-20T04:52:16.079Z,24.73
2019-01-20T04:54:46.416Z,24.93
2019-01-20T04:57:19.041Z,24.93
2019-01-20T04:59:52.595Z,23.50
2019-01-20T05:02:22.825Z,22.03
2019-01-20T05:04:54.649Z,24.17
2019-01-20T05:07:24.382Z,24.03
2019-01-20T05:09:55.198Z,25.47
2019-01-20T05:12:26.240Z,23.15
2019-01-20T05:14:56.672Z,21.00
2019-01-20T05:17:28.032Z,24.37
2019-01-20T05:19:59.315Z,20.33
2019-01-20T05:22:31.115Z,19.83
2019-01-20T05:25:01.651Z,26.37
2019-01-20T05:27:32.347Z,22.33
2019-01-20T05:30:03.046Z,23.70
2019-01-20T05:32:33.806Z,25.13
2019-01-20T05:35:04.072Z,23.00
2019-01-20T05:37:33.996Z,22.67
2019-01-20T05:40:07.176Z,23.13
2019-01-20T05:42:37.158Z,23.57
2019-01-20T05:45:12.832Z,25.87
2019-01-20T05:47:42.726Z,22.43
2019-01-20T05:50:16.892Z,24.43
2019-01-20T05:52:48.129Z,23.87
2019-01-20T05:55:18.253Z,24.15
2019-01-20T05:57:49.072Z,24.10
2019-01-20T06:00:21.360Z,23.47
2019-01-20T06:02:51.613Z,23.87
2019-01-20T06:05:21.545Z,25.60
2019-01-20T06:07:51.643Z,28.70
2019-01-20T06:10:21.622Z,27.63
2019-01-20T06:12:54.294Z,23.17
2019-01-20T06:15:23.823Z,25.15
2019-01-20T06:17:53.780Z,24.37
2019-01-20T06:20:23.653Z,22.13
2019-01-20T06:22:53.467Z,25.23
2019-01-20T06:25:23.540Z,22.60
2019-01-20T06:27:53.510Z,21.90
2019-01-20T06:30:26.298Z,19.03
2019-01-20T06:32:56.240Z,23.63
2019-01-20T06:35:26.646Z,25.03
2019-01-20T06:37:56.452Z,23.23
2019-01-20T06:40:26.594Z,25.80
2019-01-20T06:43:15.867Z,23.83
2019-01-20T06:45:45.630Z,23.93
2019-01-20T06:48:15.690Z,24.63
2019-01-20T06:50:51.235Z,24.00
2019-01-20T06:53:21.065Z,20.93
2019-01-20T06:55:50.876Z,23.50
2019-01-20T06:58:20.719Z,25.87
2019-01-20T07:00:50.598Z,25.63
2019-01-20T07:03:21.309Z,26.30
2019-01-20T07:05:50.985Z,20.97
2019-01-20T07:08:20.835Z,22.60
2019-01-20T07:10:50.688Z,24.33
2019-01-20T07:13:20.788Z,20.68
2019-01-20T07:15:51.053Z,22.73
2019-01-20T07:18:20.863Z,21.17
2019-01-20T07:20:51.047Z,23.93
2019-01-20T07:23:21.242Z,26.47
2019-01-20T07:25:50.971Z,23.53
2019-01-20T07:28:20.940Z,24.70
2019-01-20T07:30:50.965Z,23.70
2019-01-20T07:33:21.006Z,25.27
2019-01-20T07:35:50.688Z,20.87
2019-01-20T07:38:20.767Z,23.63
2019-01-20T07:40:50.622Z,22.63
2019-01-20T07:43:20.834Z,21.83
2019-01-20T07:45:50.704Z,24.30
2019-01-20T07:48:20.694Z,23.40
2019-01-20T07:50:50.574Z,26.00
2019-01-20T07:53:20.288Z,23.77
2019-01-20T07:55:51.225Z,23.97
2019-01-20T07:58:20.967Z,21.23
2019-01-20T08:00:50.642Z,22.13
2019-01-20T08:03:20.629Z,26.87
2019-01-20T08:05:51.133Z,26.27
2019-01-20T08:08:26.519Z,23.20
2019-01-20T08:10:56.220Z,21.83
2019-01-20T08:13:27.130Z,20.13
2019-01-20T08:16:06.722Z,25.23
2019-01-20T08:18:38.450Z,24.00
2019-01-20T08:21:11.026Z,23.07
2019-01-20T08:23:41.053Z,27.10
2019-01-20T08:26:13.636Z,23.03
2019-01-20T08:28:44.345Z,24.20
2019-01-20T08:31:16.629Z,22.43
2019-01-20T08:33:47.307Z,22.53
2019-01-20T08:36:20.023Z,30.43
2019-01-20T08:38:51.919Z,28.23
2019-01-20T08:41:22.036Z,27.67
2019-01-20T08:43:52.038Z,27.97
2019-01-20T08:46:25.218Z,28.57
2019-01-20T08:48:55.286Z,24.90
2019-01-20T08:51:24.993Z,22.50
2019-01-20T08:53:54.720Z,24.60
2019-01-20T08:56:24.724Z,25.25
2019-01-20T08:58:54.673Z,22.90
2019-01-20T09:01:24.701Z,22.93
2019-01-20T09:03:54.717Z,22.87
2019-01-20T09:06:25.793Z,23.63
2019-01-20T09:08:55.711Z,21.90
2019-01-20T09:11:25.655Z,19.85
2019-01-20T09:13:55.859Z,22.83
2019-01-20T09:16:25.871Z,21.13
2019-01-20T09:18:55.700Z,27.43
2019-01-20T09:21:25.698Z,21.40
2019-01-20T09:23:55.707Z,26.07
2019-01-20T09:26:25.792Z,25.72
2019-01-20T09:28:55.805Z,51.50
2019-01-20T09:31:25.845Z,36.05
2019-01-20T09:33:55.737Z,34.27
2019-01-20T09:36:25.698Z,33.50
2019-01-20T09:38:55.708Z,33.03
2019-01-20T09:41:26.440Z,31.73
2019-01-20T09:43:57.532Z,27.80
2019-01-20T09:46:27.541Z,25.57
2019-01-20T09:48:57.756Z,33.27
2019-01-20T09:51:27.920Z,130.67
2019-01-20T09:53:57.751Z,38.30
2019-01-20T09:56:27.866Z,27.37
2019-01-20T09:58:57.871Z,39.73
2019-01-20T10:01:27.899Z,34.63
2019-01-20T10:03:57.790Z,24.87
2019-01-20T10:06:27.769Z,36.77
2019-01-20T10:08:57.737Z,24.70
2019-01-20T10:11:27.392Z,28.23
2019-01-20T10:13:57.155Z,27.97
2019-01-20T10:16:26.914Z,26.57
2019-01-20T10:18:56.758Z,23.33
2019-01-20T10:21:27.005Z,31.80
2019-01-20T10:23:56.792Z,26.57
2019-01-20T10:26:27.020Z,28.62
2019-01-20T10:28:56.786Z,23.67
2019-01-20T10:31:26.841Z,21.15
2019-01-20T10:33:57.036Z,29.67
2019-01-20T10:36:26.970Z,76.43
2019-01-20T10:38:56.810Z,31.03
2019-01-20T10:41:26.439Z,27.23
2019-01-20T10:44:02.118Z,38.07
2019-01-20T10:46:27.360Z,29.80
2019-01-20T10:48:56.996Z,35.60
2019-01-20T10:51:26.908Z,27.27
2019-01-20T10:53:56.830Z,32.23
2019-01-20T10:56:27.064Z,24.95
2019-01-20T10:58:56.924Z,41.43
2019-01-20T11:01:26.970Z,39.80
2019-01-20T11:03:57.172Z,28.60
2019-01-20T11:06:27.034Z,31.07
2019-01-20T11:08:56.857Z,27.50
2019-01-20T11:11:27.109Z,25.65
2019-01-20T11:13:56.859Z,23.40
2019-01-20T11:16:27.112Z,26.85
2019-01-20T11:18:56.969Z,26.67
2019-01-20T11:21:27.077Z,23.12
2019-01-20T11:23:57.059Z,26.47
2019-01-20T11:26:27.054Z,22.60
2019-01-20T11:28:56.863Z,25.43
2019-01-20T11:31:27.147Z,28.07
2019-01-20T11:33:56.918Z,23.17
2019-01-20T11:36:26.939Z,24.25
2019-01-20T11:38:56.981Z,27.10
2019-01-20T11:41:28.417Z,28.20
2019-01-20T11:43:58.248Z,25.47
2019-01-20T11:46:28.078Z,25.13
2019-01-20T11:48:57.974Z,25.07
2019-01-20T11:51:27.992Z,29.57
2019-01-20T11:53:57.978Z,28.77
2019-01-20T11:56:27.654Z,26.97
2019-01-20T11:58:57.450Z,25.23
2019-01-20T12:01:27.166Z,26.53
2019-01-20T12:03:57.066Z,21.17
2019-01-20T12:06:27.047Z,25.45
2019-01-20T12:08:56.958Z,24.53
2019-01-20T12:11:27.254Z,24.52
2019-01-20T12:13:56.987Z,27.90
2019-01-20T12:16:27.173Z,25.43
2019-01-20T12:18:58.597Z,28.57
2019-01-20T12:21:28.334Z,26.73
2019-01-20T12:23:58.103Z,30.30
2019-01-20T12:26:28.106Z,21.82
2019-01-20T12:28:58.013Z,26.50
2019-01-20T12:31:28.218Z,23.12
2019-01-20T12:33:58.049Z,26.57
2019-01-20T12:36:27.997Z,25.45
2019-01-20T12:38:57.941Z,23.13
2019-01-20T12:41:27.646Z,29.90
2019-01-20T12:43:57.322Z,22.80
2019-01-20T12:46:27.237Z,28.30
2019-01-20T12:48:57.030Z,27.93
2019-01-20T12:51:28.599Z,23.90
2019-01-20T12:53:58.505Z,26.17
2019-01-20T12:56:28.242Z,23.80
2019-01-20T12:58:58.096Z,22.53
2019-01-20T13:01:28.042Z,22.58
2019-01-20T13:03:57.810Z,23.47
2019-01-20T13:06:27.486Z,23.50
2019-01-20T13:08:57.208Z,22.37
2019-01-20T13:11:27.217Z,20.87
2019-01-20T13:13:57.148Z,29.03
2019-01-20T13:16:27.224Z,30.68
2019-01-20T13:18:57.138Z,31.87
2019-01-20T13:21:27.094Z,24.25
2019-01-20T13:23:56.800Z,18.47
2019-01-20T13:26:26.506Z,21.13
2019-01-20T13:28:56.192Z,22.27
2019-01-20T13:31:26.279Z,21.43
2019-01-20T13:33:56.178Z,24.37
2019-01-20T13:36:26.129Z,33.25
2019-01-20T13:38:56.130Z,35.53
2019-01-20T13:41:26.194Z,27.98
2019-01-20T13:43:56.129Z,29.23
2019-01-20T13:46:26.335Z,25.32
2019-01-20T13:48:56.197Z,20.77
2019-01-20T13:51:26.273Z,18.73
2019-01-20T13:53:56.189Z,22.03
2019-01-20T13:56:26.188Z,20.90
2019-01-20T13:58:56.079Z,25.70
2019-01-20T14:01:26.196Z,19.90
2019-01-20T14:03:56.201Z,20.63
2019-01-20T14:06:26.222Z,22.77
2019-01-20T14:08:56.142Z,28.70
2019-01-20T14:11:26.205Z,27.75
2019-01-20T14:13:56.186Z,25.17
2019-01-20T14:16:26.134Z,23.05
2019-01-20T14:18:56.174Z,20.43
2019-01-20T14:21:26.288Z,22.20
2019-01-20T14:23:56.166Z,18.00
2019-01-20T14:26:26.422Z,19.00
2019-01-20T14:28:56.183Z,18.87
2019-01-20T14:31:26.198Z,18.97
2019-01-20T14:33:56.177Z,33.40
2019-01-20T14:36:26.423Z,22.73
2019-01-20T14:38:56.231Z,23.97
2019-01-20T14:41:26.169Z,24.35
2019-01-20T14:43:55.873Z,23.87
2019-01-20T14:46:25.547Z,20.03
2019-01-20T14:48:55.274Z,21.93
2019-01-20T14:51:25.346Z,18.43
2019-01-20T14:53:55.197Z,23.87
2019-01-20T14:56:24.879Z,21.83
2019-01-20T14:58:54.561Z,19.90
2019-01-20T15:01:24.413Z,21.67
2019-01-20T15:03:54.247Z,17.87
2019-01-20T15:06:24.297Z,19.23
2019-01-20T15:08:54.295Z,21.47
2019-01-20T15:11:24.246Z,20.95
2019-01-20T15:13:53.961Z,17.80
2019-01-20T15:16:23.689Z,19.90
2019-01-20T15:18:53.433Z,18.60
2019-01-20T15:21:23.405Z,22.97
2019-01-20T15:23:53.329Z,19.43
2019-01-20T15:26:23.341Z,23.30
2019-01-20T15:28:53.290Z,22.90
2019-01-20T15:31:23.371Z,19.13
2019-01-20T15:33:53.297Z,21.43
2019-01-20T15:36:23.527Z,23.73
2019-01-20T15:38:53.305Z,22.20
2019-01-20T15:41:23.542Z,27.45
2019-01-20T15:43:53.314Z,24.73
2019-01-20T15:46:23.558Z,19.25
2019-01-20T15:48:53.310Z,24.30
2019-01-20T15:51:22.963Z,21.93
2019-01-20T15:53:52.715Z,25.77
2019-01-20T15:56:22.470Z,19.70
2019-01-20T15:58:52.440Z,29.00
2019-01-20T16:01:22.496Z,26.20
2019-01-20T16:03:52.308Z,32.93
2019-01-20T16:06:22.534Z,28.07
2019-01-20T16:08:52.366Z,22.47
2019-01-20T16:11:22.344Z,24.40
2019-01-20T16:13:52.275Z,25.70
2019-01-20T16:16:22.029Z,21.97
2019-01-20T16:18:51.671Z,22.70
2019-01-20T16:21:21.529Z,22.60
2019-01-20T16:23:51.368Z,27.13
2019-01-20T16:26:21.307Z,21.40
2019-01-20T16:28:51.005Z,22.23
2019-01-20T16:31:20.669Z,20.27
2019-01-20T16:33:50.387Z,24.43
2019-01-20T16:36:19.977Z,21.70
2019-01-20T16:38:49.700Z,25.13
2019-01-20T16:41:19.485Z,22.63
2019-01-20T16:43:49.433Z,24.43
2019-01-20T16:46:19.383Z,26.30
2019-01-20T16:48:49.305Z,23.80
2019-01-20T16:51:19.074Z,26.90
2019-01-20T16:53:48.675Z,29.83
2019-01-20T16:56:18.554Z,28.07
2019-01-20T16:58:51.391Z,28.73
2019-01-20T17:01:19.852Z,25.27
2019-01-20T17:03:49.634Z,32.33
2019-01-20T17:06:19.557Z,26.13
2019-01-20T17:08:49.446Z,29.30
2019-01-20T17:11:19.458Z,29.12
2019-01-20T17:13:49.383Z,27.73
2019-01-20T17:16:19.746Z,29.07
2019-01-20T17:18:49.632Z,29.53
2019-01-20T17:21:19.595Z,29.97
2019-01-20T17:23:49.474Z,28.13
2019-01-20T17:26:19.515Z,29.12
2019-01-20T17:28:49.435Z,29.63
2019-01-20T17:31:19.657Z,27.82
2019-01-20T17:33:49.502Z,33.90
2019-01-20T17:36:19.681Z,31.50
2019-01-20T17:38:49.471Z,31.87
2019-01-20T17:41:19.739Z,33.75
2019-01-20T17:43:49.493Z,33.20
2019-01-20T17:46:19.158Z,34.57
2019-01-20T17:48:48.885Z,36.50
2019-01-20T17:51:18.639Z,37.93
2019-01-20T17:53:48.538Z,36.07
2019-01-20T17:56:18.708Z,41.00
2019-01-20T17:58:48.502Z,39.13
2019-01-20T18:01:18.761Z,38.13
2019-01-20T18:03:48.507Z,38.60
2019-01-20T18:06:18.727Z,38.90
2019-01-20T18:08:48.554Z,37.43
2019-01-20T18:11:18.543Z,40.88
2019-01-20T18:13:48.525Z,39.63
2019-01-20T18:16:18.767Z,40.10
2019-01-20T18:18:48.549Z,41.57
2019-01-20T18:21:18.246Z,39.87
2019-01-20T18:23:47.914Z,41.73
2019-01-20T18:26:17.666Z,41.37
2019-01-20T18:28:47.617Z,49.50
2019-01-20T18:31:17.569Z,41.10
2019-01-20T18:33:47.499Z,68.70
2019-01-20T18:36:17.192Z,222.13
2019-01-20T18:38:47.023Z,96.43
2019-01-20T18:41:16.955Z,97.87
2019-01-20T18:43:46.892Z,97.63
2019-01-20T18:46:16.835Z,98.10
2019-01-20T18:48:46.551Z,60.83
2019-01-20T18:51:16.780Z,60.90
2019-01-20T18:53:46.577Z,58.70
2019-01-20T18:56:16.730Z,50.47
2019-01-20T18:58:46.582Z,45.40
2019-01-20T19:01:16.776Z,43.83
2019-01-20T19:03:46.606Z,43.27
2019-01-20T19:06:16.281Z,39.83
2019-01-20T19:08:45.981Z,40.73
2019-01-20T19:11:15.789Z,44.42
2019-01-20T19:13:45.623Z,42.63
2019-01-20T19:16:15.605Z,44.60
2019-01-20T19:18:45.614Z,43.53
2019-01-20T19:21:15.577Z,43.00
2019-01-20T19:23:45.573Z,39.90
2019-01-20T19:26:15.811Z,44.98
2019-01-20T19:28:45.643Z,42.27
2019-01-20T19:31:15.648Z,42.33
2019-01-20T19:33:45.654Z,42.67
2019-01-20T19:36:15.858Z,42.10
2019-01-20T19:38:45.654Z,39.93
2019-01-20T19:41:15.863Z,39.00
2019-01-20T19:43:45.631Z,43.57
2019-01-20T19:46:16.359Z,46.13
2019-01-20T19:48:46.579Z,47.40
2019-01-20T19:51:16.218Z,51.87
2019-01-20T19:53:45.894Z,43.73
2019-01-20T19:56:15.878Z,46.37
2019-01-20T19:58:45.776Z,45.47
2019-01-20T20:01:15.683Z,44.20
2019-01-20T20:03:45.444Z,46.30
2019-01-20T20:06:15.202Z,42.70
2019-01-20T20:08:44.976Z,48.33
2019-01-20T20:11:14.903Z,60.80
2019-01-20T20:13:44.701Z,51.33
2019-01-20T20:16:14.783Z,57.37
2019-01-20T20:18:44.663Z,49.67
2019-01-20T20:21:14.358Z,51.73
2019-01-20T20:23:44.088Z,50.00
2019-01-20T20:26:13.887Z,44.17
2019-01-20T20:28:43.780Z,47.33
2019-01-20T20:31:13.937Z,49.48
2019-01-20T20:33:43.761Z,44.87
2019-01-20T20:36:14.039Z,45.88
2019-01-20T20:38:43.777Z,47.80
2019-01-20T20:41:13.935Z,52.50
2019-01-20T20:43:43.783Z,45.83
2019-01-20T20:46:13.791Z,49.30
2019-01-20T20:48:43.733Z,54.70
2019-01-20T20:51:13.489Z,48.53
2019-01-20T20:53:43.258Z,48.07
2019-01-20T20:56:13.016Z,49.80
2019-01-20T20:58:42.910Z,43.63
2019-01-20T21:01:12.920Z,45.47
2019-01-20T21:03:42.872Z,49.50
2019-01-20T21:06:12.894Z,47.27
2019-01-20T21:08:42.858Z,46.90
2019-01-20T21:11:12.901Z,47.83
2019-01-20T21:13:42.914Z,50.60
2019-01-20T21:16:12.947Z,50.10
2019-01-20T21:18:42.922Z,47.30
2019-01-20T21:21:12.910Z,49.83
2019-01-20T21:23:42.886Z,44.37
2019-01-20T21:26:14.712Z,48.03
2019-01-20T21:28:44.812Z,47.70
2019-01-20T21:31:14.480Z,45.70
2019-01-20T21:33:44.131Z,47.67
2019-01-20T21:36:14.073Z,46.77
2019-01-20T21:38:44.033Z,52.77
2019-01-20T21:41:14.161Z,46.93
2019-01-20T21:43:43.944Z,43.90
2019-01-20T21:46:14.019Z,45.87
2019-01-20T21:48:43.989Z,48.43
2019-01-20T21:51:14.047Z,44.00
2019-01-20T21:53:43.899Z,47.00
2019-01-20T21:56:14.117Z,46.60
2019-01-20T21:58:43.953Z,44.33
2019-01-20T22:01:13.906Z,51.77
2019-01-20T22:03:43.858Z,46.00
2019-01-20T22:06:13.946Z,45.30
2019-01-20T22:08:43.902Z,46.10
2019-01-20T22:11:13.910Z,44.80
2019-01-20T22:13:43.850Z,46.93
2019-01-20T22:16:13.552Z,47.57
2019-01-20T22:18:43.231Z,46.23
2019-01-20T22:21:13.164Z,55.03
2019-01-20T22:23:43.006Z,50.27
2019-01-20T22:26:12.990Z,50.93
2019-01-20T22:28:42.598Z,48.80
2019-01-20T22:31:12.394Z,47.70
2019-01-20T22:33:42.262Z,49.00
2019-01-20T22:36:12.251Z,50.17
2019-01-20T22:38:42.086Z,42.77
2019-01-20T22:41:12.244Z,48.73
2019-01-20T22:43:42.007Z,48.47
2019-01-20T22:46:12.411Z,51.73
2019-01-20T22:48:42.086Z,49.80
2019-01-20T22:51:12.326Z,46.97
2019-01-20T22:53:41.996Z,51.50
2019-01-20T22:56:12.189Z,42.77
2019-01-20T22:58:41.965Z,44.93
2019-01-20T23:01:12.389Z,46.73
2019-01-20T23:03:42.217Z,45.60
2019-01-20T23:06:12.429Z,46.00
2019-01-20T23:08:42.127Z,49.63
2019-01-20T23:11:12.453Z,44.30
2019-01-20T23:13:42.220Z,41.93
2019-01-20T23:16:12.403Z,46.13
2019-01-20T23:18:42.096Z,51.87
2019-01-20T23:21:12.556Z,46.80
2019-01-20T23:23:42.573Z,42.37
2019-01-20T23:26:12.397Z,45.00
2019-01-20T23:28:42.228Z,45.20
2019-01-20T23:31:12.410Z,47.00
2019-01-20T23:33:42.108Z,44.23
2019-01-20T23:36:12.630Z,44.27
2019-01-20T23:38:42.330Z,48.73
2019-01-20T23:41:12.398Z,44.60
2019-01-20T23:43:42.252Z,48.00
2019-01-20T23:46:12.467Z,43.23
2019-01-20T23:48:42.206Z,45.07
2019-01-20T23:51:12.406Z,44.13
2019-01-20T23:53:42.271Z,46.33
2019-01-20T23:56:12.411Z,52.23
2019-01-20T23:58:42.194Z,45.37
